sensor_id;sensor_type;location;lat;lon;timestamp;P1;durP1;ratioP1;P2;durP2;ratioP2
75386;SDS011;63966;47.914;22.266;2023-05-14T00:02:42;12.15;;;7.10;;
75386;SDS011;63966;47.914;22.266;2023-05-14T00:05:46;14.07;;;7.38;;
75386;SDS011;63966;47.914;22.266;2023-05-14T00:08:50;12.37;;;6.70;;
75386;SDS011;63966;47.914;22.266;2023-05-14T00:11:53;11.95;;;7.07;;
75386;SDS011;63966;47.914;22.266;2023-05-14T00:14:57;13.15;;;7.13;;
75386;SDS011;63966;47.914;22.266;2023-05-14T00:18:00;11.75;;;7.10;;
75386;SDS011;63966;47.914;22.266;2023-05-14T00:21:04;13.88;;;7.13;;
75386;SDS011;63966;47.914;22.266;2023-05-14T00:24:07;13.23;;;7.13;;
75386;SDS011;63966;47.914;22.266;2023-05-14T00:27:11;13.30;;;7.53;;
75386;SDS011;63966;47.914;22.266;2023-05-14T00:30:15;12.65;;;7.28;;
75386;SDS011;63966;47.914;22.266;2023-05-14T00:33:18;14.80;;;7.30;;
75386;SDS011;63966;47.914;22.266;2023-05-14T00:36:21;15.70;;;7.53;;
75386;SDS011;63966;47.914;22.266;2023-05-14T00:39:25;15.43;;;7.17;;
75386;SDS011;63966;47.914;22.266;2023-05-14T00:42:28;13.27;;;7.40;;
75386;SDS011;63966;47.914;22.266;2023-05-14T00:45:32;11.88;;;7.35;;
75386;SDS011;63966;47.914;22.266;2023-05-14T00:48:35;12.68;;;7.22;;
75386;SDS011;63966;47.914;22.266;2023-05-14T00:51:38;14.68;;;7.45;;
75386;SDS011;63966;47.914;22.266;2023-05-14T00:54:43;14.17;;;7.53;;
75386;SDS011;63966;47.914;22.266;2023-05-14T00:57:49;17.77;;;7.75;;
75386;SDS011;63966;47.914;22.266;2023-05-14T01:00:54;11.68;;;6.55;;
75386;SDS011;63966;47.914;22.266;2023-05-14T01:03:57;12.80;;;7.10;;
75386;SDS011;63966;47.914;22.266;2023-05-14T01:07:06;13.35;;;7.95;;
75386;SDS011;63966;47.914;22.266;2023-05-14T01:10:37;14.97;;;8.07;;
75386;SDS011;63966;47.914;22.266;2023-05-14T01:17:12;12.48;;;7.25;;
75386;SDS011;63966;47.914;22.266;2023-05-14T01:20:21;11.95;;;7.28;;
75386;SDS011;63966;47.914;22.266;2023-05-14T01:23:25;13.93;;;7.78;;
75386;SDS011;63966;47.914;22.266;2023-05-14T01:26:29;11.27;;;6.47;;
75386;SDS011;63966;47.914;22.266;2023-05-14T01:29:32;13.63;;;7.30;;
75386;SDS011;63966;47.914;22.266;2023-05-14T01:32:39;11.98;;;7.03;;
75386;SDS011;63966;47.914;22.266;2023-05-14T01:35:46;12.95;;;7.32;;
75386;SDS011;63966;47.914;22.266;2023-05-14T01:38:50;15.23;;;7.28;;
75386;SDS011;63966;47.914;22.266;2023-05-14T01:41:55;13.03;;;7.63;;
75386;SDS011;63966;47.914;22.266;2023-05-14T01:44:58;13.48;;;7.50;;
75386;SDS011;63966;47.914;22.266;2023-05-14T01:48:03;13.52;;;7.70;;
75386;SDS011;63966;47.914;22.266;2023-05-14T01:51:08;13.68;;;7.65;;
75386;SDS011;63966;47.914;22.266;2023-05-14T01:54:11;13.10;;;7.60;;
75386;SDS011;63966;47.914;22.266;2023-05-14T01:57:14;13.63;;;7.03;;
75386;SDS011;63966;47.914;22.266;2023-05-14T02:00:18;12.13;;;6.95;;
75386;SDS011;63966;47.914;22.266;2023-05-14T02:03:23;12.15;;;7.22;;
75386;SDS011;63966;47.914;22.266;2023-05-14T02:06:26;12.40;;;7.45;;
75386;SDS011;63966;47.914;22.266;2023-05-14T02:09:30;14.65;;;7.47;;
75386;SDS011;63966;47.914;22.266;2023-05-14T02:12:33;13.43;;;7.37;;
75386;SDS011;63966;47.914;22.266;2023-05-14T02:15:37;12.48;;;7.25;;
75386;SDS011;63966;47.914;22.266;2023-05-14T02:18:40;16.13;;;8.07;;
75386;SDS011;63966;47.914;22.266;2023-05-14T02:21:44;15.02;;;7.57;;
75386;SDS011;63966;47.914;22.266;2023-05-14T02:24:48;14.77;;;7.97;;
75386;SDS011;63966;47.914;22.266;2023-05-14T02:27:52;18.10;;;8.97;;
75386;SDS011;63966;47.914;22.266;2023-05-14T02:30:58;14.40;;;7.97;;
75386;SDS011;63966;47.914;22.266;2023-05-14T02:34:03;14.65;;;8.15;;
75386;SDS011;63966;47.914;22.266;2023-05-14T02:37:07;14.52;;;7.80;;
75386;SDS011;63966;47.914;22.266;2023-05-14T02:40:11;13.60;;;7.63;;
75386;SDS011;63966;47.914;22.266;2023-05-14T02:43:14;13.27;;;7.87;;
75386;SDS011;63966;47.914;22.266;2023-05-14T02:46:18;15.93;;;8.07;;
75386;SDS011;63966;47.914;22.266;2023-05-14T02:49:21;15.70;;;7.88;;
75386;SDS011;63966;47.914;22.266;2023-05-14T02:52:25;13.43;;;7.68;;
75386;SDS011;63966;47.914;22.266;2023-05-14T02:55:28;13.60;;;7.65;;
75386;SDS011;63966;47.914;22.266;2023-05-14T02:58:32;16.00;;;7.60;;
75386;SDS011;63966;47.914;22.266;2023-05-14T03:01:35;12.10;;;7.32;;
75386;SDS011;63966;47.914;22.266;2023-05-14T03:04:39;15.48;;;7.57;;
75386;SDS011;63966;47.914;22.266;2023-05-14T03:07:43;11.35;;;7.55;;
75386;SDS011;63966;47.914;22.266;2023-05-14T03:10:46;12.25;;;7.43;;
75386;SDS011;63966;47.914;22.266;2023-05-14T03:13:49;12.47;;;7.33;;
75386;SDS011;63966;47.914;22.266;2023-05-14T03:16:53;15.80;;;8.10;;
75386;SDS011;63966;47.914;22.266;2023-05-14T03:19:56;14.02;;;6.90;;
75386;SDS011;63966;47.914;22.266;2023-05-14T03:23:01;14.68;;;6.82;;
75386;SDS011;63966;47.914;22.266;2023-05-14T03:26:04;12.90;;;6.65;;
75386;SDS011;63966;47.914;22.266;2023-05-14T03:29:07;14.37;;;6.50;;
75386;SDS011;63966;47.914;22.266;2023-05-14T03:32:11;14.93;;;6.70;;
75386;SDS011;63966;47.914;22.266;2023-05-14T03:35:15;12.35;;;6.50;;
75386;SDS011;63966;47.914;22.266;2023-05-14T03:38:19;11.52;;;6.18;;
75386;SDS011;63966;47.914;22.266;2023-05-14T03:41:22;11.88;;;6.30;;
75386;SDS011;63966;47.914;22.266;2023-05-14T03:44:26;11.07;;;5.87;;
75386;SDS011;63966;47.914;22.266;2023-05-14T03:47:29;13.18;;;6.57;;
75386;SDS011;63966;47.914;22.266;2023-05-14T03:50:34;11.48;;;6.18;;
75386;SDS011;63966;47.914;22.266;2023-05-14T03:53:38;12.30;;;6.32;;
75386;SDS011;63966;47.914;22.266;2023-05-14T03:56:41;14.23;;;5.90;;
75386;SDS011;63966;47.914;22.266;2023-05-14T03:59:44;11.90;;;6.20;;
75386;SDS011;63966;47.914;22.266;2023-05-14T04:02:48;12.38;;;5.93;;
75386;SDS011;63966;47.914;22.266;2023-05-14T04:05:51;12.38;;;6.05;;
75386;SDS011;63966;47.914;22.266;2023-05-14T04:08:55;11.13;;;5.85;;
75386;SDS011;63966;47.914;22.266;2023-05-14T04:11:58;10.52;;;5.70;;
75386;SDS011;63966;47.914;22.266;2023-05-14T04:15:02;10.53;;;5.20;;
75386;SDS011;63966;47.914;22.266;2023-05-14T04:18:06;9.82;;;5.88;;
75386;SDS011;63966;47.914;22.266;2023-05-14T04:21:09;8.93;;;5.30;;
75386;SDS011;63966;47.914;22.266;2023-05-14T04:24:13;9.32;;;5.40;;
75386;SDS011;63966;47.914;22.266;2023-05-14T04:27:21;7.45;;;4.97;;
75386;SDS011;63966;47.914;22.266;2023-05-14T04:30:24;7.83;;;5.00;;
75386;SDS011;63966;47.914;22.266;2023-05-14T04:33:28;9.25;;;4.57;;
75386;SDS011;63966;47.914;22.266;2023-05-14T04:36:31;8.38;;;4.82;;
75386;SDS011;63966;47.914;22.266;2023-05-14T04:39:34;8.65;;;4.45;;
75386;SDS011;63966;47.914;22.266;2023-05-14T04:42:39;7.57;;;4.30;;
75386;SDS011;63966;47.914;22.266;2023-05-14T04:45:42;7.93;;;4.40;;
75386;SDS011;63966;47.914;22.266;2023-05-14T04:48:46;8.80;;;4.57;;
75386;SDS011;63966;47.914;22.266;2023-05-14T04:51:50;7.47;;;4.20;;
75386;SDS011;63966;47.914;22.266;2023-05-14T04:54:53;8.68;;;3.88;;
75386;SDS011;63966;47.914;22.266;2023-05-14T04:57:58;9.00;;;4.35;;
75386;SDS011;63966;47.914;22.266;2023-05-14T05:01:02;8.10;;;4.40;;
75386;SDS011;63966;47.914;22.266;2023-05-14T05:04:06;6.95;;;3.88;;
75386;SDS011;63966;47.914;22.266;2023-05-14T05:07:09;7.82;;;4.05;;
75386;SDS011;63966;47.914;22.266;2023-05-14T05:10:14;7.15;;;4.10;;
75386;SDS011;63966;47.914;22.266;2023-05-14T05:13:17;7.38;;;3.80;;
75386;SDS011;63966;47.914;22.266;2023-05-14T05:16:20;7.00;;;4.10;;
75386;SDS011;63966;47.914;22.266;2023-05-14T05:19:24;7.30;;;3.88;;
75386;SDS011;63966;47.914;22.266;2023-05-14T05:22:41;5.90;;;3.20;;
75386;SDS011;63966;47.914;22.266;2023-05-14T05:25:44;8.95;;;3.60;;
75386;SDS011;63966;47.914;22.266;2023-05-14T05:28:47;7.50;;;3.38;;
75386;SDS011;63966;47.914;22.266;2023-05-14T05:31:51;6.57;;;3.47;;
75386;SDS011;63966;47.914;22.266;2023-05-14T05:34:55;6.45;;;3.65;;
75386;SDS011;63966;47.914;22.266;2023-05-14T05:37:59;7.15;;;3.63;;
75386;SDS011;63966;47.914;22.266;2023-05-14T05:41:03;6.22;;;3.03;;
75386;SDS011;63966;47.914;22.266;2023-05-14T05:44:06;7.45;;;3.67;;
75386;SDS011;63966;47.914;22.266;2023-05-14T05:47:09;8.73;;;3.30;;
75386;SDS011;63966;47.914;22.266;2023-05-14T05:50:13;6.65;;;3.38;;
75386;SDS011;63966;47.914;22.266;2023-05-14T05:53:16;7.00;;;3.42;;
75386;SDS011;63966;47.914;22.266;2023-05-14T05:56:20;5.97;;;3.47;;
75386;SDS011;63966;47.914;22.266;2023-05-14T05:59:23;6.68;;;3.05;;
75386;SDS011;63966;47.914;22.266;2023-05-14T06:02:27;5.40;;;2.87;;
75386;SDS011;63966;47.914;22.266;2023-05-14T06:05:30;5.88;;;3.00;;
75386;SDS011;63966;47.914;22.266;2023-05-14T06:08:33;5.85;;;3.13;;
75386;SDS011;63966;47.914;22.266;2023-05-14T06:11:37;4.93;;;2.90;;
75386;SDS011;63966;47.914;22.266;2023-05-14T06:14:40;6.25;;;3.00;;
75386;SDS011;63966;47.914;22.266;2023-05-14T06:17:43;5.73;;;2.90;;
75386;SDS011;63966;47.914;22.266;2023-05-14T06:20:47;8.02;;;3.13;;
75386;SDS011;63966;47.914;22.266;2023-05-14T06:23:50;5.28;;;3.10;;
75386;SDS011;63966;47.914;22.266;2023-05-14T06:26:54;5.70;;;3.17;;
75386;SDS011;63966;47.914;22.266;2023-05-14T06:29:57;7.55;;;3.30;;
75386;SDS011;63966;47.914;22.266;2023-05-14T06:33:01;6.10;;;3.00;;
75386;SDS011;63966;47.914;22.266;2023-05-14T06:36:04;6.50;;;3.42;;
75386;SDS011;63966;47.914;22.266;2023-05-14T06:39:09;5.32;;;3.00;;
75386;SDS011;63966;47.914;22.266;2023-05-14T06:42:13;8.07;;;3.20;;
75386;SDS011;63966;47.914;22.266;2023-05-14T06:45:17;6.70;;;3.30;;
75386;SDS011;63966;47.914;22.266;2023-05-14T06:48:20;7.13;;;3.00;;
75386;SDS011;63966;47.914;22.266;2023-05-14T06:51:24;5.55;;;2.80;;
75386;SDS011;63966;47.914;22.266;2023-05-14T06:54:28;5.38;;;2.85;;
75386;SDS011;63966;47.914;22.266;2023-05-14T06:57:32;6.10;;;2.80;;
75386;SDS011;63966;47.914;22.266;2023-05-14T07:00:35;7.15;;;3.42;;
75386;SDS011;63966;47.914;22.266;2023-05-14T07:03:39;5.07;;;2.80;;
75386;SDS011;63966;47.914;22.266;2023-05-14T07:06:42;5.75;;;2.90;;
75386;SDS011;63966;47.914;22.266;2023-05-14T07:09:46;5.18;;;2.72;;
75386;SDS011;63966;47.914;22.266;2023-05-14T07:12:50;4.60;;;2.20;;
75386;SDS011;63966;47.914;22.266;2023-05-14T07:15:53;4.82;;;2.72;;
75386;SDS011;63966;47.914;22.266;2023-05-14T07:18:57;5.33;;;2.83;;
75386;SDS011;63966;47.914;22.266;2023-05-14T07:22:00;7.43;;;2.55;;
75386;SDS011;63966;47.914;22.266;2023-05-14T07:25:04;5.15;;;2.72;;
75386;SDS011;63966;47.914;22.266;2023-05-14T07:28:07;6.70;;;2.78;;
75386;SDS011;63966;47.914;22.266;2023-05-14T07:31:11;6.68;;;2.60;;
75386;SDS011;63966;47.914;22.266;2023-05-14T07:34:14;5.43;;;2.60;;
75386;SDS011;63966;47.914;22.266;2023-05-14T07:37:18;5.07;;;2.65;;
75386;SDS011;63966;47.914;22.266;2023-05-14T07:40:25;4.90;;;2.50;;
75386;SDS011;63966;47.914;22.266;2023-05-14T07:43:28;4.70;;;2.20;;
75386;SDS011;63966;47.914;22.266;2023-05-14T07:46:32;4.75;;;2.92;;
75386;SDS011;63966;47.914;22.266;2023-05-14T07:49:35;8.00;;;2.90;;
75386;SDS011;63966;47.914;22.266;2023-05-14T07:52:39;6.38;;;2.00;;
75386;SDS011;63966;47.914;22.266;2023-05-14T07:55:43;6.50;;;2.55;;
75386;SDS011;63966;47.914;22.266;2023-05-14T07:58:49;5.95;;;2.70;;
75386;SDS011;63966;47.914;22.266;2023-05-14T08:01:52;5.88;;;2.47;;
75386;SDS011;63966;47.914;22.266;2023-05-14T08:04:56;6.17;;;2.80;;
75386;SDS011;63966;47.914;22.266;2023-05-14T08:07:59;4.32;;;2.22;;
75386;SDS011;63966;47.914;22.266;2023-05-14T08:11:03;4.78;;;2.97;;
75386;SDS011;63966;47.914;22.266;2023-05-14T08:14:07;5.38;;;2.40;;
75386;SDS011;63966;47.914;22.266;2023-05-14T08:17:10;4.35;;;2.63;;
75386;SDS011;63966;47.914;22.266;2023-05-14T08:20:14;6.10;;;2.33;;
75386;SDS011;63966;47.914;22.266;2023-05-14T08:23:17;4.93;;;2.33;;
75386;SDS011;63966;47.914;22.266;2023-05-14T08:26:21;4.25;;;2.30;;
75386;SDS011;63966;47.914;22.266;2023-05-14T08:29:24;3.78;;;1.70;;
75386;SDS011;63966;47.914;22.266;2023-05-14T08:32:28;7.10;;;2.25;;
75386;SDS011;63966;47.914;22.266;2023-05-14T08:35:31;5.10;;;2.30;;
75386;SDS011;63966;47.914;22.266;2023-05-14T08:38:34;5.78;;;2.10;;
75386;SDS011;63966;47.914;22.266;2023-05-14T08:41:38;4.72;;;1.95;;
75386;SDS011;63966;47.914;22.266;2023-05-14T08:47:51;5.30;;;2.22;;
75386;SDS011;63966;47.914;22.266;2023-05-14T08:50:56;5.47;;;1.90;;
75386;SDS011;63966;47.914;22.266;2023-05-14T08:54:01;3.40;;;1.70;;
75386;SDS011;63966;47.914;22.266;2023-05-14T08:57:07;5.18;;;2.22;;
75386;SDS011;63966;47.914;22.266;2023-05-14T09:00:11;4.82;;;2.00;;
75386;SDS011;63966;47.914;22.266;2023-05-14T09:03:16;7.10;;;2.50;;
75386;SDS011;63966;47.914;22.266;2023-05-14T09:06:20;5.23;;;2.20;;
75386;SDS011;63966;47.914;22.266;2023-05-14T09:09:25;6.55;;;1.90;;
75386;SDS011;63966;47.914;22.266;2023-05-14T09:12:29;4.53;;;2.13;;
75386;SDS011;63966;47.914;22.266;2023-05-14T09:15:32;3.88;;;1.90;;
75386;SDS011;63966;47.914;22.266;2023-05-14T09:18:41;4.53;;;2.30;;
75386;SDS011;63966;47.914;22.266;2023-05-14T09:21:46;4.17;;;1.90;;
75386;SDS011;63966;47.914;22.266;2023-05-14T09:25:01;5.20;;;1.90;;
75386;SDS011;63966;47.914;22.266;2023-05-14T09:28:07;4.38;;;2.25;;
75386;SDS011;63966;47.914;22.266;2023-05-14T09:31:10;4.70;;;2.13;;
75386;SDS011;63966;47.914;22.266;2023-05-14T09:34:22;6.78;;;2.20;;
75386;SDS011;63966;47.914;22.266;2023-05-14T09:37:27;4.60;;;1.93;;
75386;SDS011;63966;47.914;22.266;2023-05-14T09:40:31;4.22;;;2.08;;
75386;SDS011;63966;47.914;22.266;2023-05-14T09:43:34;8.05;;;2.10;;
75386;SDS011;63966;47.914;22.266;2023-05-14T09:46:37;6.35;;;2.15;;
75386;SDS011;63966;47.914;22.266;2023-05-14T09:49:41;4.13;;;2.38;;
75386;SDS011;63966;47.914;22.266;2023-05-14T09:52:44;5.70;;;2.10;;
75386;SDS011;63966;47.914;22.266;2023-05-14T09:55:47;4.07;;;2.08;;
75386;SDS011;63966;47.914;22.266;2023-05-14T09:58:51;4.93;;;2.38;;
75386;SDS011;63966;47.914;22.266;2023-05-14T10:01:54;4.78;;;2.20;;
75386;SDS011;63966;47.914;22.266;2023-05-14T10:04:59;7.90;;;2.17;;
75386;SDS011;63966;47.914;22.266;2023-05-14T10:11:18;6.82;;;2.15;;
75386;SDS011;63966;47.914;22.266;2023-05-14T10:14:24;4.07;;;2.00;;
75386;SDS011;63966;47.914;22.266;2023-05-14T10:17:33;4.55;;;1.77;;
75386;SDS011;63966;47.914;22.266;2023-05-14T10:20:39;4.10;;;1.70;;
75386;SDS011;63966;47.914;22.266;2023-05-14T10:23:43;9.47;;;2.20;;
75386;SDS011;63966;47.914;22.266;2023-05-14T10:26:48;4.60;;;1.98;;
75386;SDS011;63966;47.914;22.266;2023-05-14T10:29:52;3.35;;;1.65;;
75386;SDS011;63966;47.914;22.266;2023-05-14T10:33:08;5.05;;;1.70;;
75386;SDS011;63966;47.914;22.266;2023-05-14T10:36:18;4.38;;;1.80;;
75386;SDS011;63966;47.914;22.266;2023-05-14T10:39:23;4.33;;;2.00;;
75386;SDS011;63966;47.914;22.266;2023-05-14T10:42:42;3.97;;;1.65;;
75386;SDS011;63966;47.914;22.266;2023-05-14T10:45:47;5.75;;;1.88;;
75386;SDS011;63966;47.914;22.266;2023-05-14T10:48:50;4.25;;;1.80;;
75386;SDS011;63966;47.914;22.266;2023-05-14T10:51:54;4.72;;;1.90;;
75386;SDS011;63966;47.914;22.266;2023-05-14T10:54:58;4.93;;;1.80;;
75386;SDS011;63966;47.914;22.266;2023-05-14T10:58:04;4.40;;;1.90;;
75386;SDS011;63966;47.914;22.266;2023-05-14T11:01:09;4.70;;;1.77;;
75386;SDS011;63966;47.914;22.266;2023-05-14T11:04:17;4.22;;;1.50;;
75386;SDS011;63966;47.914;22.266;2023-05-14T11:10:57;5.73;;;1.70;;
75386;SDS011;63966;47.914;22.266;2023-05-14T11:14:00;3.53;;;1.63;;
75386;SDS011;63966;47.914;22.266;2023-05-14T11:17:04;3.10;;;1.63;;
75386;SDS011;63966;47.914;22.266;2023-05-14T11:20:08;3.92;;;1.98;;
75386;SDS011;63966;47.914;22.266;2023-05-14T11:23:12;5.15;;;1.98;;
75386;SDS011;63966;47.914;22.266;2023-05-14T11:26:15;4.37;;;1.70;;
75386;SDS011;63966;47.914;22.266;2023-05-14T11:29:22;3.83;;;1.90;;
75386;SDS011;63966;47.914;22.266;2023-05-14T11:32:26;2.85;;;1.70;;
75386;SDS011;63966;47.914;22.266;2023-05-14T11:35:29;2.90;;;1.60;;
75386;SDS011;63966;47.914;22.266;2023-05-14T11:38:32;3.58;;;1.65;;
75386;SDS011;63966;47.914;22.266;2023-05-14T11:41:42;3.47;;;1.83;;
75386;SDS011;63966;47.914;22.266;2023-05-14T11:44:49;5.45;;;1.88;;
75386;SDS011;63966;47.914;22.266;2023-05-14T11:47:53;3.92;;;1.70;;
75386;SDS011;63966;47.914;22.266;2023-05-14T11:50:56;3.58;;;1.50;;
75386;SDS011;63966;47.914;22.266;2023-05-14T11:54:00;4.63;;;1.70;;
75386;SDS011;63966;47.914;22.266;2023-05-14T11:57:12;5.83;;;1.70;;
75386;SDS011;63966;47.914;22.266;2023-05-14T12:00:17;3.28;;;1.75;;
75386;SDS011;63966;47.914;22.266;2023-05-14T12:03:23;4.13;;;1.77;;
75386;SDS011;63966;47.914;22.266;2023-05-14T12:06:31;4.03;;;1.63;;
75386;SDS011;63966;47.914;22.266;2023-05-14T12:09:35;3.33;;;1.48;;
75386;SDS011;63966;47.914;22.266;2023-05-14T12:12:43;8.40;;;1.80;;
75386;SDS011;63966;47.914;22.266;2023-05-14T12:15:54;7.07;;;2.00;;
75386;SDS011;63966;47.914;22.266;2023-05-14T12:18:59;4.05;;;1.80;;
75386;SDS011;63966;47.914;22.266;2023-05-14T12:22:03;3.05;;;1.50;;
75386;SDS011;63966;47.914;22.266;2023-05-14T12:25:10;3.65;;;1.80;;
75386;SDS011;63966;47.914;22.266;2023-05-14T12:28:17;3.73;;;1.63;;
75386;SDS011;63966;47.914;22.266;2023-05-14T12:31:30;10.55;;;1.92;;
75386;SDS011;63966;47.914;22.266;2023-05-14T12:34:35;4.47;;;2.00;;
75386;SDS011;63966;47.914;22.266;2023-05-14T12:37:39;4.57;;;1.75;;
75386;SDS011;63966;47.914;22.266;2023-05-14T12:40:44;4.32;;;1.85;;
75386;SDS011;63966;47.914;22.266;2023-05-14T12:43:47;4.40;;;1.80;;
75386;SDS011;63966;47.914;22.266;2023-05-14T12:46:51;3.58;;;1.70;;
75386;SDS011;63966;47.914;22.266;2023-05-14T12:49:54;4.35;;;1.70;;
75386;SDS011;63966;47.914;22.266;2023-05-14T12:52:57;3.72;;;1.85;;
75386;SDS011;63966;47.914;22.266;2023-05-14T12:56:01;9.05;;;4.00;;
75386;SDS011;63966;47.914;22.266;2023-05-14T12:59:04;5.30;;;2.77;;
75386;SDS011;63966;47.914;22.266;2023-05-14T13:02:08;3.40;;;1.90;;
75386;SDS011;63966;47.914;22.266;2023-05-14T13:05:11;4.20;;;1.77;;
75386;SDS011;63966;47.914;22.266;2023-05-14T13:08:15;3.65;;;1.60;;
75386;SDS011;63966;47.914;22.266;2023-05-14T13:11:19;6.75;;;1.88;;
75386;SDS011;63966;47.914;22.266;2023-05-14T13:14:22;5.20;;;1.87;;
75386;SDS011;63966;47.914;22.266;2023-05-14T13:17:26;4.15;;;2.03;;
75386;SDS011;63966;47.914;22.266;2023-05-14T13:20:30;6.00;;;1.70;;
75386;SDS011;63966;47.914;22.266;2023-05-14T13:23:34;3.05;;;1.50;;
75386;SDS011;63966;47.914;22.266;2023-05-14T13:26:37;4.28;;;1.70;;
75386;SDS011;63966;47.914;22.266;2023-05-14T13:29:41;4.77;;;1.80;;
75386;SDS011;63966;47.914;22.266;2023-05-14T13:32:44;5.32;;;1.52;;
75386;SDS011;63966;47.914;22.266;2023-05-14T13:35:48;4.03;;;1.60;;
75386;SDS011;63966;47.914;22.266;2023-05-14T13:38:51;4.20;;;1.80;;
75386;SDS011;63966;47.914;22.266;2023-05-14T13:41:54;5.45;;;1.70;;
75386;SDS011;63966;47.914;22.266;2023-05-14T13:44:58;5.03;;;2.00;;
75386;SDS011;63966;47.914;22.266;2023-05-14T13:48:02;6.20;;;1.80;;
75386;SDS011;63966;47.914;22.266;2023-05-14T13:51:05;4.88;;;1.85;;
75386;SDS011;63966;47.914;22.266;2023-05-14T13:54:09;3.90;;;1.80;;
75386;SDS011;63966;47.914;22.266;2023-05-14T13:57:12;5.63;;;1.90;;
75386;SDS011;63966;47.914;22.266;2023-05-14T14:00:16;4.57;;;1.80;;
75386;SDS011;63966;47.914;22.266;2023-05-14T14:03:20;4.47;;;1.90;;
75386;SDS011;63966;47.914;22.266;2023-05-14T14:06:24;5.13;;;1.70;;
75386;SDS011;63966;47.914;22.266;2023-05-14T14:09:31;4.07;;;1.90;;
75386;SDS011;63966;47.914;22.266;2023-05-14T14:12:36;4.30;;;1.90;;
75386;SDS011;63966;47.914;22.266;2023-05-14T14:15:40;5.47;;;1.77;;
75386;SDS011;63966;47.914;22.266;2023-05-14T14:18:44;6.07;;;2.08;;
75386;SDS011;63966;47.914;22.266;2023-05-14T14:21:48;5.25;;;2.42;;
75386;SDS011;63966;47.914;22.266;2023-05-14T14:24:52;4.28;;;2.10;;
75386;SDS011;63966;47.914;22.266;2023-05-14T14:27:56;4.43;;;2.15;;
75386;SDS011;63966;47.914;22.266;2023-05-14T14:30:59;6.63;;;2.10;;
75386;SDS011;63966;47.914;22.266;2023-05-14T14:34:02;4.65;;;2.33;;
75386;SDS011;63966;47.914;22.266;2023-05-14T14:37:06;5.50;;;2.40;;
75386;SDS011;63966;47.914;22.266;2023-05-14T14:40:10;5.38;;;2.30;;
75386;SDS011;63966;47.914;22.266;2023-05-14T14:43:13;7.35;;;2.35;;
75386;SDS011;63966;47.914;22.266;2023-05-14T14:46:17;8.20;;;2.30;;
75386;SDS011;63966;47.914;22.266;2023-05-14T14:49:21;6.05;;;2.67;;
75386;SDS011;63966;47.914;22.266;2023-05-14T14:52:25;6.35;;;2.40;;
75386;SDS011;63966;47.914;22.266;2023-05-14T14:55:29;4.75;;;2.30;;
75386;SDS011;63966;47.914;22.266;2023-05-14T14:58:32;5.50;;;2.60;;
75386;SDS011;63966;47.914;22.266;2023-05-14T15:01:36;5.90;;;2.10;;
75386;SDS011;63966;47.914;22.266;2023-05-14T15:04:39;4.97;;;2.20;;
75386;SDS011;63966;47.914;22.266;2023-05-14T15:07:43;6.40;;;2.42;;
75386;SDS011;63966;47.914;22.266;2023-05-14T15:10:46;6.30;;;2.22;;
75386;SDS011;63966;47.914;22.266;2023-05-14T15:13:50;5.10;;;2.40;;
75386;SDS011;63966;47.914;22.266;2023-05-14T15:16:53;4.73;;;2.23;;
75386;SDS011;63966;47.914;22.266;2023-05-14T15:19:57;5.63;;;2.17;;
75386;SDS011;63966;47.914;22.266;2023-05-14T15:23:00;5.25;;;2.33;;
75386;SDS011;63966;47.914;22.266;2023-05-14T15:26:04;4.57;;;2.30;;
75386;SDS011;63966;47.914;22.266;2023-05-14T15:29:07;5.88;;;2.70;;
75386;SDS011;63966;47.914;22.266;2023-05-14T15:32:11;5.73;;;2.67;;
75386;SDS011;63966;47.914;22.266;2023-05-14T15:35:14;4.65;;;2.28;;
75386;SDS011;63966;47.914;22.266;2023-05-14T15:38:18;6.45;;;2.60;;
75386;SDS011;63966;47.914;22.266;2023-05-14T15:41:21;7.80;;;2.42;;
75386;SDS011;63966;47.914;22.266;2023-05-14T15:44:26;4.80;;;2.30;;
75386;SDS011;63966;47.914;22.266;2023-05-14T15:47:30;4.67;;;2.30;;
75386;SDS011;63966;47.914;22.266;2023-05-14T15:50:34;5.15;;;2.45;;
75386;SDS011;63966;47.914;22.266;2023-05-14T15:53:37;4.90;;;2.10;;
75386;SDS011;63966;47.914;22.266;2023-05-14T15:56:41;5.07;;;2.50;;
75386;SDS011;63966;47.914;22.266;2023-05-14T15:59:45;4.50;;;2.10;;
75386;SDS011;63966;47.914;22.266;2023-05-14T16:02:49;3.90;;;1.83;;
75386;SDS011;63966;47.914;22.266;2023-05-14T16:05:54;3.85;;;2.08;;
75386;SDS011;63966;47.914;22.266;2023-05-14T16:08:57;5.13;;;2.10;;
75386;SDS011;63966;47.914;22.266;2023-05-14T16:12:02;3.70;;;1.90;;
75386;SDS011;63966;47.914;22.266;2023-05-14T16:15:07;7.03;;;2.05;;
75386;SDS011;63966;47.914;22.266;2023-05-14T16:18:10;5.63;;;2.20;;
75386;SDS011;63966;47.914;22.266;2023-05-14T16:21:14;4.60;;;1.80;;
75386;SDS011;63966;47.914;22.266;2023-05-14T16:24:17;5.07;;;2.10;;
75386;SDS011;63966;47.914;22.266;2023-05-14T16:27:21;6.95;;;2.45;;
75386;SDS011;63966;47.914;22.266;2023-05-14T16:30:24;6.75;;;2.53;;
75386;SDS011;63966;47.914;22.266;2023-05-14T16:33:28;7.03;;;2.07;;
75386;SDS011;63966;47.914;22.266;2023-05-14T16:36:31;4.13;;;1.95;;
75386;SDS011;63966;47.914;22.266;2023-05-14T16:39:35;4.78;;;2.08;;
75386;SDS011;63966;47.914;22.266;2023-05-14T16:42:38;7.10;;;2.00;;
75386;SDS011;63966;47.914;22.266;2023-05-14T16:45:42;6.53;;;2.10;;
75386;SDS011;63966;47.914;22.266;2023-05-14T16:48:46;6.57;;;2.17;;
75386;SDS011;63966;47.914;22.266;2023-05-14T16:51:51;4.40;;;1.90;;
75386;SDS011;63966;47.914;22.266;2023-05-14T16:54:55;4.68;;;2.20;;
75386;SDS011;63966;47.914;22.266;2023-05-14T16:57:58;7.25;;;2.10;;
75386;SDS011;63966;47.914;22.266;2023-05-14T17:01:02;5.85;;;1.95;;
75386;SDS011;63966;47.914;22.266;2023-05-14T17:04:07;5.73;;;2.20;;
75386;SDS011;63966;47.914;22.266;2023-05-14T17:07:11;5.25;;;2.17;;
75386;SDS011;63966;47.914;22.266;2023-05-14T17:10:14;6.22;;;2.63;;
75386;SDS011;63966;47.914;22.266;2023-05-14T17:13:18;4.60;;;1.85;;
75386;SDS011;63966;47.914;22.266;2023-05-14T17:16:21;4.35;;;1.77;;
75386;SDS011;63966;47.914;22.266;2023-05-14T17:19:26;6.10;;;2.20;;
75386;SDS011;63966;47.914;22.266;2023-05-14T17:22:30;5.78;;;2.30;;
75386;SDS011;63966;47.914;22.266;2023-05-14T17:25:33;5.88;;;2.20;;
75386;SDS011;63966;47.914;22.266;2023-05-14T17:28:37;6.13;;;2.60;;
75386;SDS011;63966;47.914;22.266;2023-05-14T17:31:40;4.65;;;2.20;;
75386;SDS011;63966;47.914;22.266;2023-05-14T17:34:44;5.07;;;1.90;;
75386;SDS011;63966;47.914;22.266;2023-05-14T17:37:47;6.22;;;2.25;;
75386;SDS011;63966;47.914;22.266;2023-05-14T17:40:51;4.30;;;2.33;;
75386;SDS011;63966;47.914;22.266;2023-05-14T17:43:54;5.50;;;2.60;;
75386;SDS011;63966;47.914;22.266;2023-05-14T17:46:58;8.40;;;2.40;;
75386;SDS011;63966;47.914;22.266;2023-05-14T17:50:02;4.80;;;2.17;;
75386;SDS011;63966;47.914;22.266;2023-05-14T17:53:06;7.13;;;2.40;;
75386;SDS011;63966;47.914;22.266;2023-05-14T17:56:10;6.70;;;2.58;;
75386;SDS011;63966;47.914;22.266;2023-05-14T17:59:13;6.75;;;2.97;;
75386;SDS011;63966;47.914;22.266;2023-05-14T18:02:16;9.88;;;3.65;;
75386;SDS011;63966;47.914;22.266;2023-05-14T18:05:20;9.30;;;4.63;;
75386;SDS011;63966;47.914;22.266;2023-05-14T18:08:24;7.00;;;3.53;;
75386;SDS011;63966;47.914;22.266;2023-05-14T18:11:28;6.13;;;3.00;;
75386;SDS011;63966;47.914;22.266;2023-05-14T18:14:35;5.38;;;2.50;;
75386;SDS011;63966;47.914;22.266;2023-05-14T18:17:38;5.53;;;2.90;;
75386;SDS011;63966;47.914;22.266;2023-05-14T18:20:42;5.83;;;2.77;;
75386;SDS011;63966;47.914;22.266;2023-05-14T18:23:45;6.68;;;2.60;;